Mount Clemens, MI

7:46 AM EST on December 26, 2014 (GMT -0500)
Rivendell Sub | Change Station
CLOSE
Current Station
Personal Weather Station
Location: Sterling Heights, MI
Elevation: 610 ft
Nearby Weather Stations

Elev 610 ft 42.59 °N, 82.97 °W | Updated 1 minute ago

Clear
Clear
34.0 °F
Feels Like 34 °F
N
0.1
Wind Variable Wind from SSW
Gusts 3.8 mph

Today
High -- | Low -- °F
--% Chance of Precip.
Yesterday
High -- | Low -- °F
Precip. -- in
8:00 AM 5:04 PM
Waxing Crescent, 25% visible
Pressure 30.14 in
Visibility 10.0 miles
Clouds Clear
Windchill 34 °F
Dew Point 20 °F
Humidity 55%
Rainfall 0.00 in
Snow Depth Not available.
UV 0 out of 12
Pollen .10 out of 12
Air Quality Not available.
Flu Activity Not available.
METAR KMTC 261158Z AUTO 19009KT 10SM CLR M01/M01 A3011 RMK AO2 SLP206 70001 T10081008 10022 21010 55005 $

More Conditions Fewer Conditions

Pressure 30.14 in
Visibility 10.0 miles
Clouds Clear
Windchill 34 °F
Dew Point 20 °F
Humidity 55%
Rainfall 0.00 in
Snow Depth Not available.
UV 0 out of 12
Pollen .10 out of 12
Air Quality Not available.
Flu Activity Not available.
METAR KMTC 261158Z AUTO 19009KT 10SM CLR M01/M01 A3011 RMK AO2 SLP206 70001 T10081008 10022 21010 55005 $

More Conditions Fewer Conditions

10-Day Weather Forecast

Almanac

Astronomy

Dec. 26, 2014 Rise Set
Actual Time
Civil Twilight
Nautical Twilight
Astronomical Twilight
Moon
Length of Visible Light
Length of Day
Tomorrow will be .
, % of the Moon is Illuminated

Today's Extremes

State Highs State Lows

Community

WunderPhotos

Upload Photos

1,780,588 photos uploaded!

WunderBlogs® & News

Nearby

Air Quality

  Air Quality AQ Index Pollutant
Not available.

Snow Depth

Station Depth Elevation

Earthquake Activity

City Distance Mag. Time & Date
Minimum magnitude displayed is 2.5.

Coastal Water Temperatures

Place Temperature

Nearby Weather Stations